Time;durP1;ratioP1;P1;durP2;ratioP2;P2;SDS_P1;SDS_P2;PMS_P1;PMS_P2;Temp;Humidity;BMP_temperature;BMP_pressure;BME280_temperature;BME280_humidity;BME280_pressure;Samples;Min_cycle;Max_cycle;Signal;HPM_P1;HPM_P2
2023/01/17 00:10:20;;;;;;;6.63;3.30;;;;;;;0.84;100.00;93261.78;10453326;28;20195;-74
2023/01/17 00:15:22;;;;;;;6.40;2.73;;;;;;;0.93;100.00;93258.13;10451661;28;20195;-75
2023/01/17 00:26:02;;;;;;;4.27;2.87;;;;;;;1.13;100.00;93250.56;10451886;28;20256;-74
2023/01/17 01:34:07;;;;;;;2.03;1.60;;;;;;;1.35;100.00;93294.44;10450090;28;20235;-73
2023/01/17 01:39:07;;;;;;;2.23;1.80;;;;;;;1.52;100.00;93276.91;10449536;28;20333;-74
2023/01/17 01:44:42;;;;;;;3.53;1.40;;;;;;;1.51;100.00;93270.94;10450144;28;20810;-75
2023/01/17 01:49:43;;;;;;;1.43;1.33;;;;;;;1.49;100.00;93277.28;10449928;28;20192;-74
2023/01/17 01:54:47;;;;;;;2.23;1.60;;;;;;;1.53;100.00;93268.19;10448379;28;20187;-74
2023/01/17 01:59:53;;;;;;;2.50;1.50;;;;;;;1.45;100.00;93283.78;10447872;28;20346;-74
2023/01/17 02:04:53;;;;;;;2.23;1.30;;;;;;;1.60;100.00;93266.44;10449603;28;20240;-74
2023/01/17 02:09:54;;;;;;;1.10;1.00;;;;;;;1.77;100.00;93264.41;10448415;28;20250;-75
2023/01/17 02:14:54;;;;;;;1.23;1.20;;;;;;;1.77;100.00;93262.59;10449858;28;20230;-74
2023/01/17 02:20:09;;;;;;;1.03;1.00;;;;;;;1.89;99.50;93246.63;10449466;28;20222;-74
2023/01/17 02:25:16;;;;;;;2.50;1.73;;;;;;;2.02;98.06;93241.53;10449511;28;20199;-74
2023/01/17 02:30:31;;;;;;;0.80;0.80;;;;;;;2.03;96.88;93245.69;10449176;28;20219;-75
2023/01/17 02:35:43;;;;;;;1.60;0.90;;;;;;;2.03;96.05;93232.00;10450213;28;20305;-74
2023/01/17 02:40:47;;;;;;;0.97;0.97;;;;;;;2.08;95.84;93248.53;10454756;28;20301;-74
2023/01/17 02:45:47;;;;;;;0.60;0.60;;;;;;;2.12;95.89;93247.13;10456361;28;20275;-74
2023/01/17 02:50:55;;;;;;;1.23;0.97;;;;;;;2.19;94.17;93239.44;10455968;28;20194;-74
2023/01/17 02:56:06;;;;;;;1.47;1.37;;;;;;;2.17;94.00;93243.97;10456030;28;20223;-74
2023/01/17 03:01:18;;;;;;;2.13;1.63;;;;;;;2.22;93.54;93259.72;10454681;28;20227;-74
2023/01/17 03:06:24;;;;;;;4.07;2.07;;;;;;;2.37;91.96;93259.56;10454894;28;20226;-74
2023/01/17 03:11:26;;;;;;;5.70;3.80;;;;;;;2.36;91.50;93270.09;10454435;28;20529;-75
2023/01/17 03:16:28;;;;;;;6.30;3.20;;;;;;;2.42;90.10;93267.56;10455155;28;20191;-74
2023/01/17 03:21:28;;;;;;;0.70;0.70;;;;;;;2.35;89.79;93271.09;10453558;28;20314;-74
2023/01/17 03:26:29;;;;;;;1.33;0.70;;;;;;;2.32;89.08;93267.09;10454669;28;20637;-74
2023/01/17 03:31:29;;;;;;;1.90;1.20;;;;;;;2.43;88.21;93263.97;10454909;28;20192;-75
2023/01/17 03:36:29;;;;;;;1.90;1.57;;;;;;;2.43;87.81;93276.88;10453973;28;20668;-74
2023/01/17 03:41:30;;;;;;;1.10;1.00;;;;;;;2.41;87.30;93280.66;10452749;28;20765;-74
2023/01/17 03:46:31;;;;;;;1.90;1.33;;;;;;;2.45;86.56;93290.44;10453489;28;20280;-74
2023/01/17 03:51:31;;;;;;;1.50;1.40;;;;;;;2.46;86.29;93281.66;10453733;28;20302;-74
2023/01/17 03:56:32;;;;;;;1.83;1.33;;;;;;;2.38;85.69;93289.59;10453642;28;20337;-74
2023/01/17 04:01:32;;;;;;;2.73;1.80;;;;;;;2.31;86.09;93297.31;10453044;28;20220;-74
2023/01/17 04:06:32;;;;;;;1.80;0.80;;;;;;;2.33;85.38;93304.88;10410734;28;20207;-74
2023/01/17 04:11:33;;;;;;;4.70;2.57;;;;;;;2.31;85.75;93304.25;10408395;28;20283;-75
2023/01/17 04:16:33;;;;;;;1.30;1.20;;;;;;;2.28;84.86;93312.38;10407435;28;20192;-75
2023/01/17 04:21:33;;;;;;;4.70;2.60;;;;;;;2.29;84.97;93314.75;10407703;28;20270;-74
2023/01/17 04:26:34;;;;;;;2.83;1.60;;;;;;;2.23;84.72;93336.19;10407506;28;20185;-74
2023/01/17 04:31:34;;;;;;;2.77;2.47;;;;;;;2.27;84.19;93313.38;10406136;28;20193;-74
2023/01/17 04:36:34;;;;;;;0.97;0.80;;;;;;;2.20;84.09;93330.59;10407608;28;20316;-74
2023/01/17 04:41:35;;;;;;;2.63;1.77;;;;;;;2.19;84.80;93342.72;10406778;28;20232;-74
2023/01/17 04:46:35;;;;;;;0.90;0.90;;;;;;;2.14;84.46;93353.63;10406810;28;20200;-74
2023/01/17 04:51:35;;;;;;;1.30;1.17;;;;;;;2.22;84.31;93354.44;10406779;28;20185;-74
2023/01/17 04:56:36;;;;;;;1.50;1.40;;;;;;;2.10;84.84;93377.41;10406218;28;20208;-74
2023/01/17 05:01:36;;;;;;;2.70;2.13;;;;;;;2.14;84.44;93374.28;10406007;28;20308;-74
2023/01/17 05:06:37;;;;;;;1.53;1.40;;;;;;;2.10;84.54;93382.59;10408508;28;20200;-74
2023/01/17 05:11:37;;;;;;;1.17;0.90;;;;;;;2.09;84.54;93417.13;10409262;28;20300;-74
2023/01/17 05:16:37;;;;;;;0.93;0.93;;;;;;;2.02;84.67;93388.69;10409019;28;20212;-74
2023/01/17 05:21:38;;;;;;;5.63;2.37;;;;;;;2.04;85.78;93404.78;10409601;28;20644;-74
2023/01/17 05:26:39;;;;;;;1.27;1.10;;;;;;;1.95;86.96;93419.59;10409793;28;20681;-74
2023/01/17 05:31:39;;;;;;;1.10;1.00;;;;;;;1.86;87.14;93432.81;10409580;28;20196;-75
2023/01/17 05:36:40;;;;;;;2.00;1.17;;;;;;;1.87;86.87;93432.63;10409312;28;20196;-73
2023/01/17 05:41:40;;;;;;;2.70;1.30;;;;;;;1.80;86.58;93426.59;10409374;28;20224;-74
2023/01/17 05:46:41;;;;;;;1.47;0.90;;;;;;;1.82;85.69;93416.09;10407222;28;20192;-74
2023/01/17 05:51:41;;;;;;;1.10;1.00;;;;;;;1.73;86.07;93428.31;10409573;28;20176;-74
2023/01/17 05:56:41;;;;;;;3.33;1.40;;;;;;;1.63;85.95;93423.44;10408605;28;20189;-74
2023/01/17 06:01:42;;;;;;;1.40;1.10;;;;;;;1.41;86.25;93444.06;10408837;28;20313;-74
2023/01/17 06:06:42;;;;;;;1.70;1.50;;;;;;;1.40;87.06;93445.03;10409125;28;20195;-75
2023/01/17 06:11:42;;;;;;;3.27;1.73;;;;;;;1.23;87.95;93467.66;10413470;28;20227;-74
2023/01/17 06:16:43;;;;;;;1.43;0.90;;;;;;;1.17;88.33;93473.53;10415414;28;20192;-74
2023/01/17 06:21:43;;;;;;;2.93;1.50;;;;;;;1.23;87.90;93472.00;10416055;28;20220;-74
2023/01/17 06:26:43;;;;;;;1.17;1.07;;;;;;;1.16;88.35;93486.59;10416389;28;20242;-74
2023/01/17 06:31:44;;;;;;;1.07;0.97;;;;;;;1.12;88.97;93493.91;10415800;28;20203;-74
2023/01/17 06:36:44;;;;;;;3.20;1.43;;;;;;;1.16;89.49;93499.47;10415784;28;20203;-74
2023/01/17 06:41:45;;;;;;;1.97;1.77;;;;;;;1.10;90.09;93500.19;10415125;28;20341;-74
2023/01/17 06:46:46;;;;;;;1.73;1.50;;;;;;;1.18;90.39;93512.97;10415219;28;20243;-74
2023/01/17 06:51:47;;;;;;;1.53;1.30;;;;;;;1.13;90.82;93523.03;10415643;28;20304;-74
2023/01/17 06:56:47;;;;;;;2.13;1.50;;;;;;;1.09;91.22;93532.09;10414800;28;20295;-75
2023/01/17 07:01:47;;;;;;;1.53;1.40;;;;;;;1.02;91.68;93532.81;10414913;28;20278;-74
2023/01/17 07:06:48;;;;;;;3.50;1.80;;;;;;;1.04;91.48;93543.75;10414572;28;20199;-73
2023/01/17 07:11:50;;;;;;;4.87;2.53;;;;;;;1.02;90.81;93534.59;10414637;28;20227;-74
2023/01/17 07:16:50;;;;;;;1.63;1.40;;;;;;;1.11;90.08;93543.84;10414272;28;20192;-74
2023/01/17 07:21:52;;;;;;;1.93;1.50;;;;;;;1.10;89.56;93541.44;10412087;28;20220;-72
2023/01/17 07:26:52;;;;;;;1.73;1.40;;;;;;;1.16;88.75;93533.78;10413745;28;20181;-72
2023/01/17 07:31:53;;;;;;;11.13;6.03;;;;;;;1.12;89.16;93544.63;10413987;28;20187;-74
2023/01/17 07:36:53;;;;;;;2.30;1.37;;;;;;;1.06;88.80;93548.75;10413413;28;20657;-74
2023/01/17 07:41:53;;;;;;;1.27;1.17;;;;;;;1.00;87.96;93554.59;10412879;28;20729;-74
2023/01/17 07:46:54;;;;;;;12.23;7.83;;;;;;;1.02;88.17;93552.63;10412998;28;20204;-76
2023/01/17 07:51:54;;;;;;;2.37;2.17;;;;;;;0.98;87.94;93556.53;10413115;28;20214;-72
2023/01/17 07:56:54;;;;;;;2.20;2.03;;;;;;;0.99;87.57;93540.88;10412731;28;20286;-74
2023/01/17 08:01:55;;;;;;;3.77;2.40;;;;;;;1.00;87.23;93549.44;10411372;28;20227;-75
2023/01/17 08:06:55;;;;;;;4.40;1.90;;;;;;;1.00;87.42;93549.44;10412533;28;20602;-74
2023/01/17 08:11:56;;;;;;;1.57;1.43;;;;;;;1.04;87.09;93536.03;10412000;28;20211;-74
2023/01/17 08:17:04;;;;;;;3.57;2.20;;;;;;;1.16;86.33;93535.56;10411741;28;20191;-74
2023/01/17 08:22:05;;;;;;;3.50;1.70;;;;;;;1.11;86.01;93545.63;10411930;28;20696;-73
2023/01/17 08:27:07;;;;;;;1.73;1.33;;;;;;;0.97;85.71;93547.22;10411122;28;20197;-74
2023/01/17 08:32:08;;;;;;;1.73;1.23;;;;;;;0.94;86.41;93561.25;10411534;28;20737;-74
2023/01/17 08:37:08;;;;;;;3.70;1.23;;;;;;;0.98;85.99;93574.56;10410229;28;20227;-74
2023/01/17 08:42:09;;;;;;;3.27;1.87;;;;;;;1.66;85.02;93557.25;10410846;28;20294;-74
2023/01/17 08:47:09;;;;;;;1.93;1.20;;;;;;;1.40;83.66;93550.78;10410729;28;20611;-74
2023/01/17 08:52:11;;;;;;;1.33;1.23;;;;;;;1.93;83.12;93558.38;10410711;28;20230;-74
2023/01/17 08:57:12;;;;;;;3.27;1.90;;;;;;;1.75;82.53;93557.97;10410438;28;20185;-74
2023/01/17 09:02:17;;;;;;;5.63;2.40;;;;;;;1.83;82.42;93565.59;10410413;28;20299;-74
2023/01/17 09:07:19;;;;;;;4.40;2.10;;;;;;;1.31;83.47;93594.88;10410287;28;20195;-74
2023/01/17 09:12:21;;;;;;;3.37;1.90;;;;;;;1.27;84.12;93606.53;10410028;28;20188;-74
2023/01/17 09:17:21;;;;;;;1.50;1.40;;;;;;;1.45;84.62;93629.41;10408837;28;20192;-74
2023/01/17 09:22:21;;;;;;;1.40;1.30;;;;;;;1.42;84.19;93622.81;10409530;28;20222;-74
2023/01/17 09:27:22;;;;;;;1.63;1.50;;;;;;;1.52;83.49;93614.84;10409565;28;20199;-74
2023/01/17 09:32:22;;;;;;;2.63;1.47;;;;;;;1.25;83.52;93622.19;10425192;28;20193;-74
2023/01/17 09:37:22;;;;;;;2.37;1.47;;;;;;;1.38;83.57;93639.63;10409460;28;20259;-74
2023/01/17 09:42:33;;;;;;;1.40;1.30;;;;;;;1.41;83.14;93632.34;10409136;28;20237;-73
2023/01/17 09:47:41;;;;;;;1.97;1.30;;;;;;;1.27;82.95;93635.69;10414612;28;20668;-74
2023/01/17 09:52:41;;;;;;;3.80;1.10;;;;;;;1.22;81.26;93607.06;10416360;28;20199;-73
2023/01/17 09:58:01;;;;;;;2.60;1.23;;;;;;;1.29;80.04;93579.59;10417358;28;20223;-74
2023/01/17 10:03:14;;;;;;;3.00;1.90;;;;;;;1.49;81.17;93613.41;10416030;28;20257;-73
2023/01/17 10:08:23;;;;;;;1.10;1.00;;;;;;;2.24;76.92;93553.94;10415715;28;20216;-74
2023/01/17 10:13:37;;;;;;;1.33;1.00;;;;;;;2.06;75.84;93542.22;10417150;28;20200;-74
2023/01/17 10:18:59;;;;;;;1.40;1.17;;;;;;;1.65;76.78;93550.47;10415157;28;20695;-74
2023/01/17 10:24:15;;;;;;;2.23;1.30;;;;;;;1.18;76.94;93555.06;10416149;28;20224;-74
2023/01/17 10:29:17;;;;;;;1.67;1.13;;;;;;;1.98;76.04;93544.91;10416109;28;20196;-74
2023/01/17 10:34:20;;;;;;;1.83;1.10;;;;;;;2.44;74.08;93541.19;10415754;28;20196;-73
2023/01/17 10:39:22;;;;;;;3.90;2.33;;;;;;;3.27;72.27;93531.06;10414928;28;20773;-74
2023/01/17 10:44:36;;;;;;;3.77;1.20;;;;;;;3.56;69.73;93493.78;10415487;28;20327;-74
2023/01/17 10:49:39;;;;;;;1.47;1.20;;;;;;;2.18;72.07;93529.63;10413681;28;20185;-74
2023/01/17 10:54:53;;;;;;;1.53;1.10;;;;;;;2.95;71.04;93530.66;10413921;28;20263;-74
2023/01/17 10:59:57;;;;;;;6.23;1.20;;;;;;;3.08;70.91;93518.81;10412618;28;20522;-74
2023/01/17 11:05:03;;;;;;;3.00;1.10;;;;;;;2.69;70.34;93505.41;10413442;28;20185;-74
2023/01/17 11:10:03;;;;;;;1.93;1.40;;;;;;;1.96;71.05;93503.81;10414327;28;20212;-73
2023/01/17 11:15:07;;;;;;;1.00;1.00;;;;;;;2.41;69.12;93485.53;10414439;28;20223;-74
2023/01/17 11:20:26;;;;;;;3.60;1.27;;;;;;;2.45;69.97;93502.25;10413970;28;20226;-74
2023/01/17 11:25:28;;;;;;;1.57;1.27;;;;;;;2.59;69.57;93486.84;10412809;28;20232;-74
2023/01/17 11:30:28;;;;;;;1.73;1.17;;;;;;;2.19;69.45;93496.84;10412654;28;20610;-74
2023/01/17 11:35:31;;;;;;;2.90;1.23;;;;;;;1.84;70.39;93487.19;10413164;28;20188;-74
2023/01/17 11:40:42;;;;;;;2.03;1.20;;;;;;;2.17;72.64;93534.97;10412192;28;20574;-74
2023/01/17 11:45:44;;;;;;;3.73;1.07;;;;;;;2.18;71.79;93528.84;10412020;28;20680;-74
2023/01/17 11:50:57;;;;;;;1.63;1.50;;;;;;;2.63;70.50;93511.34;10411614;28;20193;-74
2023/01/17 11:56:31;;;;;;;1.50;1.40;;;;;;;1.93;72.09;93536.91;10412725;28;20658;-73
2023/01/17 12:01:36;;;;;;;1.63;1.20;;;;;;;2.10;71.85;93535.72;10408229;28;20258;-73
2023/01/17 12:06:58;;;;;;;2.70;1.40;;;;;;;1.96;70.07;93495.22;10410667;28;20196;-74
2023/01/17 12:18:04;;;;;;;2.13;1.07;;;;;;;3.26;67.18;93466.59;10410655;28;20200;-74
2023/01/17 12:23:17;;;;;;;2.13;1.20;;;;;;;3.62;64.83;93421.53;10410469;28;20263;-74
2023/01/17 12:28:45;;;;;;;1.30;0.90;;;;;;;5.66;59.42;93369.75;10410562;28;20192;-75
2023/01/17 12:33:55;;;;;;;1.37;1.07;;;;;;;6.49;56.75;93355.00;10410856;28;20271;-75
2023/01/17 12:38:57;;;;;;;1.57;1.40;;;;;;;6.47;56.79;93364.81;10409440;28;20235;-75
2023/01/17 12:44:00;;;;;;;1.97;1.20;;;;;;;4.91;59.48;93389.25;10410774;28;20590;-74
2023/01/17 12:49:21;;;;;;;1.27;1.10;;;;;;;5.33;58.21;93379.31;10410717;28;20292;-74
2023/01/17 12:54:34;;;;;;;2.07;1.10;;;;;;;4.96;58.00;93370.47;10409253;28;20196;-74
2023/01/17 12:59:46;;;;;;;2.87;1.67;;;;;;;4.07;62.51;93453.72;10425568;28;20189;-74
2023/01/17 13:05:04;;;;;;;2.20;2.00;;;;;;;4.59;61.53;93445.34;10409337;28;20204;-74
2023/01/17 13:10:20;;;;;;;2.73;1.80;;;;;;;5.02;59.34;93405.19;10409022;28;20254;-74
2023/01/17 13:15:24;;;;;;;1.37;1.20;;;;;;;3.90;59.61;93398.09;10408717;28;20603;-73
2023/01/17 13:20:31;;;;;;;1.80;1.20;;;;;;;5.10;57.53;93391.97;10408038;28;20708;-74
2023/01/17 13:25:45;;;;;;;1.23;1.03;;;;;;;6.02;55.43;93370.97;10408648;28;20664;-74
2023/01/17 13:30:48;;;;;;;4.23;1.20;;;;;;;7.53;50.23;93302.16;10408357;28;20185;-75
2023/01/17 13:35:51;;;;;;;2.17;0.93;;;;;;;5.82;53.84;93365.84;10409773;28;20247;-73
2023/01/17 13:40:54;;;;;;;2.87;1.10;;;;;;;6.51;54.84;93404.97;10408415;28;20236;-75
2023/01/17 13:45:57;;;;;;;1.70;1.40;;;;;;;7.25;52.94;93405.84;10407593;28;20192;-72
2023/01/17 13:51:02;;;;;;;2.43;1.53;;;;;;;6.00;55.87;93441.34;10409408;28;20653;-75
2023/01/17 13:56:17;;;;;;;3.70;1.27;;;;;;;4.97;58.03;93473.22;10409318;28;20252;-74
2023/01/17 14:01:20;;;;;;;2.00;1.57;;;;;;;5.62;56.08;93434.31;10408926;28;20223;-74
2023/01/17 14:06:39;;;;;;;1.73;1.47;;;;;;;8.02;52.50;93422.72;10408797;28;20212;-74
2023/01/17 14:12:02;;;;;;;3.43;2.03;;;;;;;8.82;48.86;93371.94;10407237;28;20192;-74
2023/01/17 14:17:15;;;;;;;3.83;1.20;;;;;;;7.07;52.74;93411.06;10407429;28;20681;-74
2023/01/17 14:22:15;;;;;;;1.83;1.27;;;;;;;7.60;52.05;93404.44;10408311;28;20843;-74
2023/01/17 14:27:22;;;;;;;3.23;1.13;;;;;;;6.91;52.53;93392.41;10408393;28;20200;-74
2023/01/17 14:32:26;;;;;;;3.13;1.60;;;;;;;4.53;58.06;93480.63;10411053;28;20242;-74
2023/01/17 14:37:40;;;;;;;2.93;1.60;;;;;;;3.79;60.71;93528.13;10415629;28;20386;-74
2023/01/17 14:42:41;;;;;;;1.93;1.37;;;;;;;3.22;62.75;93565.25;10413720;28;20240;-73
2023/01/17 14:47:42;;;;;;;1.50;1.40;;;;;;;2.87;65.58;93605.78;10430709;28;20185;-73
2023/01/17 14:52:45;;;;;;;1.77;1.67;;;;;;;2.92;67.29;93631.06;10414977;28;20676;-75
2023/01/17 14:57:54;;;;;;;3.43;2.20;;;;;;;2.75;67.43;93620.97;10414905;28;20192;-74
2023/01/17 15:02:58;;;;;;;3.00;1.73;;;;;;;1.93;70.83;93665.97;10414827;28;20236;-74
2023/01/17 15:07:59;;;;;;;2.43;1.80;;;;;;;1.15;75.20;93727.31;10413294;28;20223;-73
2023/01/17 15:13:05;;;;;;;2.27;2.07;;;;;;;1.25;76.71;93743.38;10413023;28;20200;-74
2023/01/17 15:18:12;;;;;;;4.47;1.70;;;;;;;0.87;79.33;93763.91;10414026;28;20188;-73
2023/01/17 15:23:20;;;;;;;2.77;1.53;;;;;;;0.91;79.85;93762.59;10414115;28;20225;-73
2023/01/17 15:28:21;;;;;;;2.23;1.40;;;;;;;0.78;79.86;93754.63;10413431;28;20188;-74
2023/01/17 15:33:21;;;;;;;7.47;4.37;;;;;;;0.65;80.81;93758.56;10412260;28;20187;-73
2023/01/17 15:38:22;;;;;;;19.97;9.07;;;;;;;0.16;83.19;93795.59;10411802;28;20353;-73
2023/01/17 15:43:25;;;;;;;3.40;2.23;;;;;;;-0.59;84.59;93785.56;10411320;28;20216;-73
2023/01/17 15:48:43;;;;;;;8.63;4.83;;;;;;;-0.73;87.24;93810.16;10432141;28;20194;-73
2023/01/17 15:53:43;;;;;;;13.23;8.50;;;;;;;-1.13;89.38;93812.50;10454009;28;20191;-74
2023/01/17 15:58:44;;;;;;;5.20;2.87;;;;;;;-1.46;90.10;93816.72;10452958;28;20549;-74
2023/01/17 16:03:54;;;;;;;3.30;2.80;;;;;;;-1.42;90.88;93817.19;10453517;28;20584;-74
2023/01/17 16:08:54;;;;;;;5.20;2.20;;;;;;;-1.86;92.68;93818.94;10453683;28;20192;-74
2023/01/17 16:13:54;;;;;;;7.30;3.33;;;;;;;-2.19;94.45;93823.88;10453114;28;20192;-73
2023/01/17 16:18:58;;;;;;;10.30;4.80;;;;;;;-2.34;95.36;93826.19;10452331;28;20199;-73
2023/01/17 16:23:59;;;;;;;49.73;23.83;;;;;;;-2.09;95.64;93828.91;10452851;28;20867;-73
2023/01/17 16:28:59;;;;;;;54.47;27.60;;;;;;;-2.23;95.54;93807.19;10452393;28;20196;-73
2023/01/17 16:34:00;;;;;;;21.33;11.90;;;;;;;-2.44;95.70;93804.94;10451449;28;20532;-73
2023/01/17 16:39:00;;;;;;;82.47;32.83;;;;;;;-2.66;96.27;93813.91;10451596;28;20816;-73
2023/01/17 16:44:04;;;;;;;38.90;15.43;;;;;;;-2.78;97.52;93808.22;10452304;28;20227;-74
2023/01/17 16:49:04;;;;;;;51.40;21.73;;;;;;;-2.72;97.10;93799.13;10451753;28;20199;-76
2023/01/17 16:54:04;;;;;;;22.50;11.47;;;;;;;-3.03;97.15;93807.19;10449758;28;20192;-73
2023/01/17 16:59:05;;;;;;;20.33;9.13;;;;;;;-3.17;100.00;93810.25;10451777;28;20199;-73
2023/01/17 17:04:05;;;;;;;60.03;35.47;;;;;;;-3.12;99.95;93798.63;10451377;28;20326;-74
2023/01/17 17:09:05;;;;;;;37.33;20.07;;;;;;;-3.27;99.83;93790.63;10450195;28;20191;-74
2023/01/17 17:14:07;;;;;;;85.50;29.90;;;;;;;-3.26;99.53;93797.38;10450793;28;20186;-73
2023/01/17 17:19:08;;;;;;;84.23;39.40;;;;;;;-3.41;100.00;93819.28;10451351;28;20187;-74
2023/01/17 17:24:12;;;;;;;10.40;6.20;;;;;;;-3.49;100.00;93821.72;10450751;28;20214;-75
2023/01/17 17:29:13;;;;;;;12.53;6.23;;;;;;;-3.35;100.00;93825.56;10450638;28;20923;-73
2023/01/17 17:34:14;;;;;;;14.40;5.40;;;;;;;-3.29;100.00;93812.22;10450649;28;20184;-73
2023/01/17 17:39:14;;;;;;;12.83;5.73;;;;;;;-3.52;100.00;93815.16;10450328;28;20676;-74
2023/01/17 17:44:15;;;;;;;9.07;5.20;;;;;;;-3.58;100.00;93824.22;10450436;28;20238;-74
2023/01/17 17:49:15;;;;;;;12.83;5.83;;;;;;;-3.54;100.00;93814.47;10450659;28;20291;-74
2023/01/17 17:54:17;;;;;;;11.50;5.10;;;;;;;-3.56;100.00;93808.72;10450485;28;20188;-74
2023/01/17 17:59:18;;;;;;;12.03;5.53;;;;;;;-3.89;100.00;93804.94;10449477;28;20190;-75
2023/01/17 18:04:18;;;;;;;13.27;5.57;;;;;;;-3.84;100.00;93823.25;10450097;28;20222;-73
2023/01/17 18:09:19;;;;;;;10.17;5.50;;;;;;;-4.08;100.00;93832.19;10457503;28;20206;-74
2023/01/17 18:14:22;;;;;;;6.67;3.50;;;;;;;-3.91;100.00;93838.34;10458152;28;20199;-74
2023/01/17 18:19:24;;;;;;;10.87;5.17;;;;;;;-3.75;100.00;93832.66;10457604;28;20195;-74
2023/01/17 18:24:25;;;;;;;11.70;5.13;;;;;;;-3.92;100.00;93828.25;10457055;28;20224;-74
2023/01/17 18:29:26;;;;;;;9.00;4.60;;;;;;;-3.84;100.00;93823.25;10456582;28;20191;-74
2023/01/17 18:34:28;;;;;;;7.77;4.60;;;;;;;-3.79;100.00;93828.75;10456620;28;20552;-74
2023/01/17 18:39:28;;;;;;;8.03;4.00;;;;;;;-3.89;100.00;93820.28;10455710;28;20239;-75
2023/01/17 18:44:29;;;;;;;6.23;4.00;;;;;;;-4.03;100.00;93819.00;10455846;28;20223;-74
2023/01/17 18:49:31;;;;;;;9.80;4.30;;;;;;;-4.22;100.00;93824.97;10455960;28;20207;-75
2023/01/17 18:54:31;;;;;;;7.27;4.80;;;;;;;-4.00;100.00;93827.19;10455449;28;20188;-74
2023/01/17 18:59:32;;;;;;;16.67;5.77;;;;;;;-3.88;100.00;93822.72;10455863;28;20652;-74
2023/01/17 19:04:34;;;;;;;12.50;5.80;;;;;;;-3.80;100.00;93822.00;10455015;28;20572;-75
2023/01/17 19:09:35;;;;;;;10.63;3.73;;;;;;;-3.99;100.00;93828.81;10455129;28;20728;-74
2023/01/17 19:14:35;;;;;;;6.80;3.03;;;;;;;-3.95;100.00;93832.72;10455029;28;20190;-74
2023/01/17 19:19:36;;;;;;;12.10;4.80;;;;;;;-3.89;100.00;93843.31;10453170;28;20202;-75
2023/01/17 19:24:37;;;;;;;11.63;4.40;;;;;;;-3.96;100.00;93840.53;10454764;28;20227;-74
2023/01/17 19:29:38;;;;;;;6.53;3.43;;;;;;;-4.09;100.00;93830.56;10454400;28;20660;-74
2023/01/17 19:34:38;;;;;;;44.93;18.63;;;;;;;-4.12;100.00;93846.19;10455055;28;20275;-74
2023/01/17 19:39:39;;;;;;;12.80;5.43;;;;;;;-3.98;100.00;93847.50;10454266;28;20329;-75
2023/01/17 19:44:39;;;;;;;12.47;8.20;;;;;;;-3.87;100.00;93844.00;10454516;28;20219;-74
2023/01/17 19:49:41;;;;;;;16.93;8.07;;;;;;;-3.93;100.00;93845.34;10454385;28;20196;-73
2023/01/17 19:54:41;;;;;;;23.10;10.10;;;;;;;-4.01;100.00;93853.72;10454147;28;20188;-74
2023/01/17 19:59:41;;;;;;;11.40;6.03;;;;;;;-3.96;100.00;93860.97;10454308;28;20675;-75
2023/01/17 20:04:43;;;;;;;14.83;6.03;;;;;;;-4.07;100.00;93858.56;10453783;28;20700;-75
2023/01/17 20:09:43;;;;;;;21.27;10.33;;;;;;;-3.96;100.00;93868.66;10453805;28;20215;-74
2023/01/17 20:14:43;;;;;;;26.03;11.67;;;;;;;-4.02;100.00;93866.63;10453512;28;20206;-74
2023/01/17 20:19:45;;;;;;;14.93;7.07;;;;;;;-4.09;100.00;93876.59;10452889;28;20191;-74
2023/01/17 20:24:45;;;;;;;26.13;11.80;;;;;;;-4.12;100.00;93877.69;10453202;28;20759;-73
2023/01/17 20:29:46;;;;;;;30.20;12.00;;;;;;;-4.12;100.00;93877.69;10452595;28;20195;-74
2023/01/17 20:34:46;;;;;;;22.33;10.50;;;;;;;-4.11;100.00;93888.72;10451502;28;20195;-73
2023/01/17 20:39:47;;;;;;;16.53;7.97;;;;;;;-4.22;100.00;93887.13;10452196;28;20666;-73
2023/01/17 20:44:49;;;;;;;19.50;10.00;;;;;;;-4.15;100.00;93877.97;10452160;28;20575;-74
2023/01/17 20:49:50;;;;;;;16.77;8.53;;;;;;;-4.14;100.00;93881.31;10452004;28;20548;-73
2023/01/17 20:54:50;;;;;;;11.70;6.03;;;;;;;-4.28;100.00;93884.31;10452177;28;20283;-74
2023/01/17 20:59:51;;;;;;;19.90;9.00;;;;;;;-4.17;100.00;93879.03;10451840;28;20196;-73
2023/01/17 21:04:51;;;;;;;29.80;13.37;;;;;;;-4.16;100.00;93865.31;10450518;28;20365;-74
2023/01/17 21:09:52;;;;;;;12.23;5.03;;;;;;;-4.18;100.00;93862.91;10451575;28;20278;-74
2023/01/17 21:14:52;;;;;;;11.03;4.03;;;;;;;-4.32;100.00;93879.47;10451047;28;20198;-74
2023/01/17 21:19:52;;;;;;;8.57;3.40;;;;;;;-4.46;100.00;93882.44;10451436;28;20279;-74
2023/01/17 21:24:53;;;;;;;10.23;5.87;;;;;;;-4.55;100.00;93881.50;10449886;28;20310;-74
2023/01/17 21:29:54;;;;;;;8.87;5.03;;;;;;;-4.50;100.00;93878.56;10450943;28;20192;-73
2023/01/17 21:34:55;;;;;;;13.03;5.40;;;;;;;-4.59;100.00;93880.16;10451083;28;20184;-74
2023/01/17 21:39:55;;;;;;;5.07;2.70;;;;;;;-4.39;100.00;93877.59;10450676;28;20246;-73
2023/01/17 21:44:56;;;;;;;5.10;3.30;;;;;;;-4.36;100.00;93873.00;10458010;28;20314;-74
2023/01/17 21:49:56;;;;;;;6.40;3.40;;;;;;;-4.40;100.00;93868.31;10458995;28;20278;-74
2023/01/17 22:00:16;;;;;;;8.83;2.60;;;;;;;-4.33;100.00;93856.63;10458532;28;20199;-74
2023/01/17 22:05:17;;;;;;;5.63;2.80;;;;;;;-4.33;100.00;93857.41;10458759;28;20192;-74
2023/01/17 22:10:17;;;;;;;6.50;2.97;;;;;;;-4.42;100.00;93852.31;10458248;28;20188;-73
2023/01/17 22:15:18;;;;;;;6.80;2.30;;;;;;;-4.30;100.00;93859.69;10458469;28;20192;-73
2023/01/17 22:20:18;;;;;;;6.50;2.43;;;;;;;-4.36;100.00;93860.25;10457859;28;20210;-73
2023/01/17 22:25:18;;;;;;;3.33;2.20;;;;;;;-4.33;100.00;93848.94;10457864;28;20235;-74
2023/01/17 22:30:19;;;;;;;3.57;2.57;;;;;;;-4.39;100.00;93832.41;10457530;28;20205;-73
2023/01/17 22:35:19;;;;;;;6.17;2.60;;;;;;;-4.46;100.00;93830.53;10457625;28;20195;-74
2023/01/17 22:40:20;;;;;;;6.23;2.53;;;;;;;-4.40;100.00;93828.22;10456929;28;20247;-73
2023/01/17 22:45:20;;;;;;;4.63;2.30;;;;;;;-4.42;100.00;93827.56;10457123;28;20234;-73
2023/01/17 22:50:22;;;;;;;4.47;2.30;;;;;;;-4.50;100.00;93812.94;10456842;28;20203;-73
2023/01/17 22:55:22;;;;;;;6.07;2.60;;;;;;;-4.58;100.00;93799.22;10454999;28;20278;-73
2023/01/17 23:00:22;;;;;;;4.33;2.80;;;;;;;-4.56;100.00;93798.16;10456722;28;20274;-74
2023/01/17 23:05:23;;;;;;;7.00;2.80;;;;;;;-4.62;100.00;93810.63;10456430;28;20200;-73
2023/01/17 23:21:18;;;;;;;3.90;2.60;;;;;;;-4.33;100.00;93808.06;10381209;28;20223;-73
2023/01/17 23:26:19;;;;;;;3.87;2.70;;;;;;;-4.16;100.00;93814.19;10454881;28;20233;-73
2023/01/17 23:31:19;;;;;;;3.07;2.03;;;;;;;-3.95;100.00;93802.03;10455808;28;20191;-74
2023/01/17 23:36:19;;;;;;;6.30;3.03;;;;;;;-3.88;100.00;93783.56;10455089;28;20253;-74
2023/01/17 23:46:58;;;;;;;5.73;2.20;;;;;;;-3.79;100.00;93785.28;10327220;28;20384;-74
2023/01/17 23:51:59;;;;;;;4.27;1.93;;;;;;;-3.71;100.00;93792.22;10425255;28;20203;-74
2023/01/17 23:57:00;;;;;;;3.77;2.33;;;;;;;-3.66;100.00;93783.19;10454374;28;20196;-73
